To NAV CANADA Home Page Login to a new session Search on AWWS site Feedback and Comments Disclaimer Vers la page française équivalente Tips FAQ What's new on the site To the Forecasts and Observations / NOTAM section To "File a Flight Plan" website Publications and other links Update of the User's profile FIC Telephone Numbers My Weather Data Folder Route Weather Data Regional Weather Data Local Weather Data To the Forecasts and Observations / NOTAM section
Request Generated 04/30/2017 at 05:00:29 UTC . Weather information available at that time is displayed.

METAR/TAF

ABBOTSFORD/BC    

METAR CYXX 300400Z 06004KT 040V140 10SM -RA BKN031 OVC041 09/07 A3005
RMK SC6SC2 SLP179=
METAR CYXX 300300Z 20004KT 160V250 12SM -RA FEW010 OVC030 09/06 A3006
RMK SF1SC7 SLP183=
METAR CYXX 300200Z 17006KT 15SM -RA FEW011 BKN040 OVC050 09/06 A3008
RMK SF1SC6SC1 SLP190=

TAF CYXX 292338Z 3000/3024 01006KT P6SM -RA SCT020 OVC040 TEMPO
3000/3008 5SM -RA BR BKN020 OVC040
FM300800 18008KT P6SM BKN040 TEMPO 3008/3018 BKN020
RMK NXT FCST BY 300600Z=
Your time UTC time
Weather data provided by Environment Canada and NAV CANADA